Time;durP1;ratioP1;P1;durP2;ratioP2;P2;SDS_P1;SDS_P2;PMS_P1;PMS_P2;Temp;Humidity;BMP_temperature;BMP_pressure;BME280_temperature;BME280_humidity;BME280_pressure;Samples;Min_cycle;Max_cycle;Signal;HPM_P1;HPM_P2
2024/03/12 00:00:46;;;;;;;64.55;43.72;;;8.30;99.90;;;;;;5035488;28;20037;-62
2024/03/12 00:03:13;;;;;;;60.17;40.65;;;8.30;99.90;;;;;;5036309;28;20046;-62
2024/03/12 00:05:42;;;;;;;59.08;39.85;;;8.30;99.90;;;;;;5036120;28;20073;-62
2024/03/12 00:08:08;;;;;;;61.97;41.42;;;8.20;99.90;;;;;;5035828;28;20476;-62
2024/03/12 00:10:35;;;;;;;59.78;40.83;;;8.20;99.90;;;;;;5035746;28;20045;-62
2024/03/12 00:13:02;;;;;;;57.10;38.50;;;8.20;99.90;;;;;;5034621;28;20042;-62
2024/03/12 00:15:29;;;;;;;60.28;39.60;;;8.20;99.90;;;;;;5035271;28;20124;-62
2024/03/12 00:17:56;;;;;;;62.47;41.00;;;8.20;99.90;;;;;;5035251;28;20532;-63
2024/03/12 00:20:35;;;;;;;60.35;39.85;;;8.20;99.90;;;;;;5035660;28;20034;-62
2024/03/12 00:23:02;;;;;;;55.20;40.05;;;8.20;99.90;;;;;;5035114;28;20079;-62
2024/03/12 00:25:30;;;;;;;61.78;40.28;;;8.20;99.90;;;;;;5035320;28;20041;-62
2024/03/12 00:27:57;;;;;;;58.80;38.13;;;8.10;99.90;;;;;;5035194;28;20387;-62
2024/03/12 00:30:28;;;;;;;55.80;38.45;;;8.10;99.90;;;;;;5034209;28;20478;-62
2024/03/12 00:32:56;;;;;;;61.28;38.63;;;8.00;99.90;;;;;;5034911;28;20045;-62
2024/03/12 00:35:23;;;;;;;58.35;39.42;;;8.00;99.90;;;;;;5035118;28;20129;-62
2024/03/12 00:37:50;;;;;;;57.13;38.70;;;8.00;99.90;;;;;;5035164;28;20045;-62
2024/03/12 00:40:19;;;;;;;56.15;36.83;;;8.00;99.90;;;;;;5034841;28;20088;-62
2024/03/12 00:42:46;;;;;;;58.70;37.17;;;7.90;99.90;;;;;;5034748;28;20038;-62
2024/03/12 00:45:13;;;;;;;53.58;37.08;;;7.90;99.90;;;;;;5034474;28;20049;-62
2024/03/12 00:47:43;;;;;;;58.90;38.45;;;7.90;99.90;;;;;;5034545;28;20099;-62
2024/03/12 00:50:11;;;;;;;53.45;36.20;;;7.80;99.90;;;;;;5035051;28;20033;-62
2024/03/12 00:52:38;;;;;;;53.45;36.92;;;7.80;99.90;;;;;;5035119;28;20045;-62
2024/03/12 00:55:04;;;;;;;54.53;37.35;;;7.80;99.90;;;;;;5034902;28;20033;-62
2024/03/12 00:57:34;;;;;;;58.03;37.90;;;7.80;99.90;;;;;;5035035;28;20117;-62
2024/03/12 01:00:01;;;;;;;53.80;35.53;;;7.80;99.90;;;;;;5034639;28;20056;-62
2024/03/12 01:02:32;;;;;;;53.35;36.50;;;7.80;99.90;;;;;;5034921;28;20041;-62
2024/03/12 01:04:59;;;;;;;51.83;36.17;;;7.80;99.90;;;;;;5034344;28;20095;-64
2024/03/12 01:07:26;;;;;;;49.97;34.97;;;7.80;99.90;;;;;;5034812;28;20429;-64
2024/03/12 01:09:54;;;;;;;51.90;35.17;;;7.80;99.90;;;;;;5034664;28;20335;-64
2024/03/12 01:12:21;;;;;;;55.75;36.45;;;7.80;99.90;;;;;;5034352;28;20128;-64
2024/03/12 01:14:48;;;;;;;51.53;35.90;;;7.80;99.90;;;;;;5034147;28;20045;-63
2024/03/12 01:17:15;;;;;;;52.22;35.03;;;7.80;99.90;;;;;;5034087;28;20044;-64
2024/03/12 01:19:42;;;;;;;49.70;34.75;;;7.80;99.90;;;;;;5034402;28;20421;-64
2024/03/12 01:22:09;;;;;;;51.92;35.35;;;7.90;99.90;;;;;;5034451;28;20049;-64
2024/03/12 01:24:36;;;;;;;48.28;33.13;;;7.90;99.90;;;;;;5034529;28;20453;-65
2024/03/12 01:27:05;;;;;;;51.17;34.03;;;7.90;99.90;;;;;;5034323;28;20045;-64
2024/03/12 01:29:33;;;;;;;47.70;34.63;;;7.90;99.90;;;;;;5034159;28;20076;-64
2024/03/12 01:32:00;;;;;;;49.53;33.85;;;7.90;99.90;;;;;;5034058;28;20401;-64
2024/03/12 01:34:27;;;;;;;44.70;32.78;;;7.90;99.90;;;;;;5034279;28;20397;-63
2024/03/12 01:36:54;;;;;;;45.95;33.28;;;7.90;99.90;;;;;;5034249;28;20037;-64
2024/03/12 01:39:25;;;;;;;52.58;35.22;;;7.90;99.90;;;;;;5033855;28;20030;-64
2024/03/12 01:41:52;;;;;;;49.58;33.75;;;8.00;99.90;;;;;;5034187;28;20049;-64
2024/03/12 01:44:19;;;;;;;46.35;33.33;;;7.90;99.90;;;;;;5033877;28;20037;-64
2024/03/12 01:46:46;;;;;;;44.10;32.38;;;8.00;99.90;;;;;;5033954;28;20042;-64
2024/03/12 01:49:13;;;;;;;48.22;33.25;;;8.00;99.90;;;;;;5033682;28;20532;-64
2024/03/12 01:51:41;;;;;;;44.67;31.67;;;8.00;99.90;;;;;;5033907;28;20041;-64
2024/03/12 01:54:08;;;;;;;43.67;31.70;;;8.00;99.90;;;;;;5033468;28;20045;-64
2024/03/12 01:56:35;;;;;;;43.95;32.30;;;8.00;99.90;;;;;;5033376;28;20482;-64
2024/03/12 01:59:02;;;;;;;43.17;31.58;;;8.00;99.90;;;;;;5033239;28;20049;-64
2024/03/12 02:01:29;;;;;;;44.28;31.00;;;7.90;99.90;;;;;;5032564;28;20060;-64
2024/03/12 02:03:56;;;;;;;41.65;30.33;;;8.00;99.90;;;;;;5033737;28;20037;-64
2024/03/12 02:06:23;;;;;;;44.03;31.48;;;8.00;99.90;;;;;;5033389;28;20064;-64
2024/03/12 02:08:50;;;;;;;42.65;30.30;;;8.00;99.90;;;;;;5033405;28;20356;-64
2024/03/12 02:11:16;;;;;;;40.88;29.23;;;8.00;99.90;;;;;;5033330;28;20129;-64
2024/03/12 02:13:43;;;;;;;41.00;29.90;;;8.00;99.90;;;;;;5033375;28;20120;-64
2024/03/12 02:16:10;;;;;;;42.10;29.95;;;8.00;99.90;;;;;;5033257;28;20530;-63
2024/03/12 02:18:37;;;;;;;41.65;29.25;;;8.00;99.90;;;;;;5033606;28;20124;-64
2024/03/12 02:21:04;;;;;;;42.38;30.02;;;8.10;99.90;;;;;;5033096;28;20041;-64
2024/03/12 02:23:31;;;;;;;44.75;29.73;;;8.00;99.90;;;;;;5033146;28;20094;-64
2024/03/12 02:25:58;;;;;;;42.72;29.73;;;8.00;99.90;;;;;;5033486;28;20045;-64
2024/03/12 02:28:25;;;;;;;42.05;28.85;;;8.00;99.90;;;;;;5033019;28;20144;-64
2024/03/12 02:30:52;;;;;;;40.05;28.33;;;8.00;99.90;;;;;;5033376;28;20088;-64
2024/03/12 02:33:20;;;;;;;41.08;28.05;;;8.00;99.90;;;;;;5031398;28;20041;-64
2024/03/12 02:35:47;;;;;;;38.30;29.30;;;8.00;99.90;;;;;;5033114;28;20056;-64
2024/03/12 02:38:13;;;;;;;35.70;26.90;;;8.00;99.90;;;;;;5033105;28;20041;-64
2024/03/12 02:40:40;;;;;;;41.08;28.05;;;8.00;99.90;;;;;;5033037;28;20038;-64
2024/03/12 02:43:07;;;;;;;39.15;28.45;;;8.00;99.90;;;;;;5033269;28;20070;-64
2024/03/12 02:45:34;;;;;;;39.97;27.58;;;8.00;99.90;;;;;;5033009;28;20128;-64
2024/03/12 02:48:04;;;;;;;40.53;27.50;;;7.90;99.90;;;;;;5033272;28;20045;-62
2024/03/12 02:50:31;;;;;;;39.58;27.40;;;7.90;99.90;;;;;;5033655;28;20050;-62
2024/03/12 02:52:58;;;;;;;40.22;28.38;;;7.90;99.90;;;;;;5033258;28;20053;-62
2024/03/12 02:55:25;;;;;;;37.28;26.70;;;7.90;99.90;;;;;;5033033;28;20044;-62
2024/03/12 02:57:52;;;;;;;40.60;28.27;;;7.80;99.90;;;;;;5033199;28;20041;-62
2024/03/12 03:00:19;;;;;;;34.20;25.17;;;7.80;99.90;;;;;;5033665;28;20061;-62
2024/03/12 03:02:46;;;;;;;33.90;24.60;;;7.80;99.90;;;;;;5031885;28;20049;-62
2024/03/12 03:05:13;;;;;;;36.03;24.75;;;7.80;99.90;;;;;;5033348;28;20041;-62
2024/03/12 03:07:40;;;;;;;34.38;24.67;;;7.80;99.90;;;;;;5036038;28;20064;-62
2024/03/12 03:10:07;;;;;;;33.13;24.00;;;7.80;99.90;;;;;;5036354;28;20049;-62
2024/03/12 03:12:34;;;;;;;37.03;24.42;;;7.80;99.90;;;;;;5037670;28;20091;-62
2024/03/12 03:15:01;;;;;;;34.47;24.70;;;7.80;99.90;;;;;;5036892;28;20053;-62
2024/03/12 03:17:28;;;;;;;31.75;24.05;;;7.80;99.90;;;;;;5037148;28;20044;-62
2024/03/12 03:19:55;;;;;;;30.90;22.75;;;7.70;99.90;;;;;;5037048;28;20038;-62
2024/03/12 03:22:21;;;;;;;35.67;22.73;;;7.70;99.90;;;;;;5037202;28;20060;-62
2024/03/12 03:24:48;;;;;;;33.78;23.05;;;7.70;99.90;;;;;;5037285;28;20482;-62
2024/03/12 03:27:15;;;;;;;32.88;23.25;;;7.70;99.90;;;;;;5037289;28;20041;-62
2024/03/12 03:29:42;;;;;;;31.58;23.50;;;7.70;99.90;;;;;;5036901;28;20080;-62
2024/03/12 03:32:09;;;;;;;31.30;22.63;;;7.70;99.90;;;;;;5036673;28;20041;-62
2024/03/12 03:34:37;;;;;;;33.90;22.60;;;7.70;99.90;;;;;;5036686;28;20116;-62
2024/03/12 03:37:04;;;;;;;33.65;22.95;;;7.60;99.90;;;;;;5036878;28;20045;-62
2024/03/12 03:39:35;;;;;;;32.13;21.85;;;7.70;99.90;;;;;;5036843;28;20486;-62
2024/03/12 03:42:02;;;;;;;30.23;22.13;;;7.70;99.90;;;;;;5037074;28;20044;-62
2024/03/12 03:44:29;;;;;;;32.25;21.80;;;7.70;99.90;;;;;;5036554;28;20037;-62
2024/03/12 03:46:56;;;;;;;32.28;21.70;;;7.60;99.90;;;;;;5036704;28;20060;-62
2024/03/12 03:49:23;;;;;;;30.65;21.67;;;7.70;99.90;;;;;;5036504;28;20056;-62
2024/03/12 03:51:51;;;;;;;30.33;21.92;;;7.70;99.90;;;;;;5036271;28;20042;-62
2024/03/12 03:54:19;;;;;;;27.50;19.73;;;7.70;99.90;;;;;;5036455;28;20048;-62
2024/03/12 03:56:45;;;;;;;30.73;21.55;;;7.60;99.90;;;;;;5036666;28;20088;-62
2024/03/12 03:59:15;;;;;;;30.30;20.63;;;7.70;99.90;;;;;;5036230;28;20067;-62
2024/03/12 04:01:42;;;;;;;26.85;20.30;;;7.70;99.90;;;;;;5036355;28;20045;-62
2024/03/12 04:04:15;;;;;;;29.35;21.08;;;7.70;99.90;;;;;;5036315;28;20116;-62
2024/03/12 04:06:45;;;;;;;30.33;20.17;;;7.70;99.90;;;;;;5035187;28;20065;-62
2024/03/12 04:09:12;;;;;;;26.05;19.65;;;7.70;99.90;;;;;;5036499;28;20053;-62
2024/03/12 04:11:39;;;;;;;28.13;19.70;;;7.70;99.90;;;;;;5035956;28;20107;-62
2024/03/12 04:14:07;;;;;;;26.30;18.88;;;7.70;99.90;;;;;;5035555;28;20052;-62
2024/03/12 04:16:34;;;;;;;26.35;19.42;;;7.70;99.90;;;;;;5035634;28;20053;-62
2024/03/12 04:19:01;;;;;;;27.42;19.70;;;7.80;99.90;;;;;;5034959;28;20041;-62
2024/03/12 04:21:28;;;;;;;28.92;18.90;;;7.80;99.90;;;;;;5036407;28;20433;-62
2024/03/12 04:23:55;;;;;;;24.38;18.05;;;7.80;99.90;;;;;;5036375;28;20041;-62
2024/03/12 04:26:22;;;;;;;25.00;18.70;;;7.80;99.90;;;;;;5036192;28;20041;-62
2024/03/12 04:28:49;;;;;;;24.92;17.75;;;7.80;99.90;;;;;;5035895;28;20060;-62
2024/03/12 04:31:16;;;;;;;25.98;17.75;;;7.80;99.90;;;;;;5036236;28;20422;-62
2024/03/12 04:33:42;;;;;;;25.52;18.42;;;7.80;99.90;;;;;;5036061;28;20360;-62
2024/03/12 04:36:13;;;;;;;25.08;18.48;;;7.80;99.90;;;;;;5035997;28;20364;-62
2024/03/12 04:38:40;;;;;;;25.77;18.23;;;7.80;99.90;;;;;;5035797;28;20029;-62
2024/03/12 04:41:07;;;;;;;24.63;17.98;;;7.90;99.90;;;;;;5034834;28;20088;-62
2024/03/12 04:43:34;;;;;;;23.77;18.02;;;7.90;99.90;;;;;;5035454;28;20453;-62
2024/03/12 04:46:01;;;;;;;24.58;17.80;;;7.90;99.90;;;;;;5035589;28;20415;-62
2024/03/12 04:48:28;;;;;;;24.05;18.08;;;7.90;99.90;;;;;;5035448;28;20418;-62
2024/03/12 04:50:54;;;;;;;25.42;18.67;;;7.90;99.90;;;;;;5033694;28;20033;-62
2024/03/12 04:53:22;;;;;;;26.98;19.30;;;7.90;99.90;;;;;;5033878;28;20096;-62
2024/03/12 04:55:49;;;;;;;23.08;17.80;;;7.90;99.90;;;;;;5034815;28;20046;-62
2024/03/12 04:58:16;;;;;;;24.25;17.83;;;7.90;99.90;;;;;;5034924;28;20033;-62
2024/03/12 05:00:43;;;;;;;24.70;18.25;;;7.90;99.90;;;;;;5034405;28;20037;-62
2024/03/12 05:03:10;;;;;;;23.00;17.08;;;7.90;99.90;;;;;;5034803;28;20182;-62
2024/03/12 05:05:37;;;;;;;25.35;18.65;;;7.90;99.90;;;;;;5034877;28;20059;-62
2024/03/12 05:08:04;;;;;;;23.63;17.48;;;7.90;99.90;;;;;;5034408;28;20049;-62
2024/03/12 05:10:30;;;;;;;23.75;17.73;;;7.90;99.90;;;;;;5034753;28;20041;-62
2024/03/12 05:12:57;;;;;;;26.67;18.67;;;8.00;99.90;;;;;;5034531;28;20045;-62
2024/03/12 05:15:24;;;;;;;27.13;18.92;;;8.00;99.90;;;;;;5032636;28;20049;-62
2024/03/12 05:17:52;;;;;;;25.65;18.77;;;8.00;99.90;;;;;;5034727;28;20038;-62
2024/03/12 05:20:22;;;;;;;27.10;19.10;;;8.00;99.90;;;;;;5034294;28;20065;-62
2024/03/12 05:22:50;;;;;;;26.83;19.02;;;8.00;99.90;;;;;;5034209;28;20041;-62
2024/03/12 05:25:26;;;;;;;27.15;19.33;;;8.00;99.90;;;;;;5034342;28;20450;-62
2024/03/12 05:27:53;;;;;;;27.02;19.55;;;7.90;99.90;;;;;;5034423;28;20048;-62
2024/03/12 05:30:22;;;;;;;26.50;19.67;;;7.90;99.90;;;;;;5033979;28;20046;-63
2024/03/12 05:32:52;;;;;;;29.20;19.95;;;7.90;99.90;;;;;;5034191;28;20126;-63
2024/03/12 05:35:21;;;;;;;32.60;21.08;;;7.90;99.90;;;;;;5034181;28;20041;-63
2024/03/12 05:38:01;;;;;;;29.30;20.65;;;7.80;99.90;;;;;;5033633;28;20069;-63
2024/03/12 05:40:46;;;;;;;28.60;20.73;;;7.80;99.90;;;;;;5034176;28;20041;-63
2024/03/12 05:48:49;;;;;;;28.73;21.02;;;7.80;99.90;;;;;;5033766;28;20099;-63
2024/03/12 05:51:17;;;;;;;27.02;20.45;;;7.80;99.90;;;;;;5032215;28;20406;-63
2024/03/12 05:53:44;;;;;;;29.95;20.48;;;7.70;99.90;;;;;;5033584;28;20055;-63
2024/03/12 05:56:11;;;;;;;31.95;21.15;;;7.70;99.90;;;;;;5033728;28;20059;-63
2024/03/12 05:58:45;;;;;;;27.85;21.05;;;7.70;99.90;;;;;;5032466;28;20065;-63
2024/03/12 06:01:12;;;;;;;28.58;20.52;;;7.70;99.90;;;;;;5033910;28;20068;-63
2024/03/12 06:03:40;;;;;;;24.98;18.02;;;7.70;99.90;;;;;;5033920;28;20371;-63
2024/03/12 06:06:10;;;;;;;28.98;19.73;;;7.70;99.90;;;;;;5033304;28;20138;-63
2024/03/12 06:08:37;;;;;;;24.08;18.10;;;7.60;99.90;;;;;;5033873;28;20076;-62
2024/03/12 06:11:03;;;;;;;29.00;18.33;;;7.60;99.90;;;;;;5033697;28;20049;-62
2024/03/12 06:13:30;;;;;;;24.80;18.63;;;7.60;99.90;;;;;;5031905;28;20045;-62
2024/03/12 06:15:57;;;;;;;26.48;17.48;;;7.60;99.90;;;;;;5032845;28;20045;-62
2024/03/12 06:18:24;;;;;;;25.98;17.85;;;7.60;99.90;;;;;;5031692;28;20454;-62
2024/03/12 06:20:51;;;;;;;26.45;17.90;;;7.60;99.90;;;;;;5032427;28;20053;-62
2024/03/12 06:23:19;;;;;;;23.48;16.73;;;7.60;99.90;;;;;;5033217;28;20521;-62
2024/03/12 06:25:46;;;;;;;22.92;15.77;;;7.60;99.90;;;;;;5033361;28;20041;-62
2024/03/12 06:28:14;;;;;;;22.25;15.85;;;7.60;99.90;;;;;;5033657;28;20124;-62
2024/03/12 06:30:43;;;;;;;20.10;15.18;;;7.60;99.90;;;;;;5033512;28;20092;-62
2024/03/12 06:33:11;;;;;;;23.83;15.85;;;7.60;99.90;;;;;;5033465;28;20041;-62
2024/03/12 06:35:39;;;;;;;19.98;14.15;;;7.60;99.90;;;;;;5033305;28;20037;-62
2024/03/12 06:38:06;;;;;;;21.15;14.35;;;7.60;99.90;;;;;;5032476;28;20044;-62
2024/03/12 06:40:32;;;;;;;21.05;14.18;;;7.60;99.90;;;;;;5032961;28;20040;-62
2024/03/12 06:42:59;;;;;;;19.85;13.93;;;7.60;99.90;;;;;;5032499;28;20044;-63
2024/03/12 06:45:26;;;;;;;19.77;13.05;;;7.60;99.90;;;;;;5032969;28;20092;-63
2024/03/12 06:47:55;;;;;;;18.88;12.15;;;7.60;99.90;;;;;;5033048;28;20502;-63
2024/03/12 06:50:25;;;;;;;16.38;11.98;;;7.70;99.90;;;;;;5033410;28;20103;-63
2024/03/12 06:52:53;;;;;;;18.42;12.30;;;7.60;99.90;;;;;;5033456;28;20386;-63
2024/03/12 06:55:23;;;;;;;17.17;11.93;;;7.70;99.90;;;;;;5031902;28;20051;-63
2024/03/12 06:57:52;;;;;;;18.63;11.55;;;7.60;99.90;;;;;;5033294;28;20450;-63
2024/03/12 07:00:26;;;;;;;16.95;11.27;;;7.60;99.90;;;;;;5033256;28;20048;-63
2024/03/12 07:02:54;;;;;;;18.38;11.05;;;7.60;99.90;;;;;;5032970;28;20120;-63
2024/03/12 07:05:22;;;;;;;16.15;10.35;;;7.50;99.90;;;;;;5032587;28;20041;-63
2024/03/12 07:07:49;;;;;;;17.42;10.80;;;7.50;99.90;;;;;;5033169;28;20121;-63
2024/03/12 07:10:18;;;;;;;17.13;10.18;;;7.50;99.90;;;;;;5033341;28;20060;-63
2024/03/12 07:12:46;;;;;;;16.42;10.07;;;7.40;99.90;;;;;;5033199;28;20100;-63
2024/03/12 07:15:12;;;;;;;16.55;9.43;;;7.40;99.90;;;;;;5032767;28;20475;-63
2024/03/12 07:17:39;;;;;;;16.00;9.80;;;7.40;99.90;;;;;;5033198;28;20030;-63
2024/03/12 07:20:10;;;;;;;15.55;9.77;;;7.40;99.90;;;;;;5032985;28;20037;-63
2024/03/12 07:22:42;;;;;;;15.40;10.30;;;7.40;99.90;;;;;;5033116;28;20376;-63
2024/03/12 07:25:12;;;;;;;16.00;9.20;;;7.30;99.90;;;;;;5033055;28;20073;-64
2024/03/12 07:27:39;;;;;;;14.25;10.10;;;7.40;99.90;;;;;;5032997;28;20631;-64
2024/03/12 07:30:06;;;;;;;15.27;10.27;;;7.40;99.90;;;;;;5032801;28;20046;-65
2024/03/12 07:32:33;;;;;;;15.38;10.05;;;7.50;99.90;;;;;;5033134;28;20042;-65
2024/03/12 07:35:00;;;;;;;13.25;9.45;;;7.50;99.90;;;;;;5032781;28;20049;-65
2024/03/12 07:37:27;;;;;;;15.25;10.38;;;7.50;99.90;;;;;;5032988;28;20486;-64
2024/03/12 07:39:54;;;;;;;15.52;10.30;;;7.50;99.90;;;;;;5032731;28;20541;-64
2024/03/12 07:42:21;;;;;;;15.98;10.80;;;7.60;99.90;;;;;;5031495;28;20103;-64
2024/03/12 07:44:48;;;;;;;14.35;9.73;;;7.60;99.90;;;;;;5033144;28;20068;-64
2024/03/12 07:47:14;;;;;;;18.05;10.82;;;7.50;99.90;;;;;;5032823;28;20048;-65
2024/03/12 07:49:41;;;;;;;17.20;10.43;;;7.60;99.90;;;;;;5032937;28;20080;-65
2024/03/12 07:52:14;;;;;;;17.15;10.35;;;7.60;99.90;;;;;;5032836;28;20096;-65
2024/03/12 07:54:42;;;;;;;16.80;9.45;;;7.60;99.90;;;;;;5036385;28;20401;-65
2024/03/12 07:57:08;;;;;;;13.98;8.93;;;7.60;99.90;;;;;;5033220;28;20045;-65
2024/03/12 07:59:36;;;;;;;18.10;9.32;;;7.60;99.90;;;;;;5016343;28;20049;-65
2024/03/12 08:02:12;;;;;;;14.70;9.32;;;7.70;99.90;;;;;;5016380;28;20037;-64
2024/03/12 08:04:42;;;;;;;14.15;8.65;;;7.70;99.90;;;;;;5014953;28;20038;-64
2024/03/12 08:07:09;;;;;;;12.00;8.02;;;7.70;99.90;;;;;;5015910;28;20437;-64
2024/03/12 08:09:36;;;;;;;12.38;8.02;;;7.70;99.90;;;;;;5016310;28;20100;-66
2024/03/12 08:12:03;;;;;;;11.15;7.38;;;7.70;99.90;;;;;;5014849;28;20092;-65
2024/03/12 08:14:35;;;;;;;10.40;7.20;;;7.70;99.90;;;;;;5016077;28;20468;-65
2024/03/12 08:17:02;;;;;;;10.60;7.55;;;7.80;99.90;;;;;;5015828;28;20126;-65
2024/03/12 08:19:28;;;;;;;12.68;7.30;;;7.80;99.90;;;;;;5016277;28;20049;-65
2024/03/12 08:21:55;;;;;;;8.50;6.35;;;7.80;99.90;;;;;;5015724;28;20117;-66
2024/03/12 08:24:23;;;;;;;9.57;6.10;;;7.80;99.90;;;;;;5015975;28;20049;-66
2024/03/12 08:26:50;;;;;;;9.02;5.75;;;7.80;99.90;;;;;;5015811;28;20049;-65
2024/03/12 08:29:18;;;;;;;8.88;5.70;;;7.80;99.90;;;;;;5013818;28;20041;-66
2024/03/12 08:31:45;;;;;;;7.45;5.47;;;7.90;99.90;;;;;;5026784;28;20052;-65
2024/03/12 08:34:25;;;;;;;7.18;4.88;;;7.90;99.90;;;;;;5039612;28;20049;-66
2024/03/12 08:36:51;;;;;;;8.18;4.88;;;7.90;99.90;;;;;;5034716;28;20088;-65
2024/03/12 08:39:18;;;;;;;8.77;4.68;;;8.00;99.90;;;;;;5034880;28;20049;-65
2024/03/12 08:41:45;;;;;;;7.68;4.55;;;8.00;99.90;;;;;;5034620;28;20045;-66
2024/03/12 08:44:13;;;;;;;6.97;4.45;;;8.10;99.90;;;;;;5033646;28;20438;-66
2024/03/12 08:46:41;;;;;;;6.38;3.97;;;8.10;99.90;;;;;;5044530;28;20049;-66
2024/03/12 08:49:10;;;;;;;6.07;3.70;;;8.10;99.90;;;;;;5054990;28;20378;-65
2024/03/12 08:51:38;;;;;;;5.35;3.60;;;8.20;99.90;;;;;;5053584;28;20053;-64
2024/03/12 08:54:05;;;;;;;5.88;3.78;;;8.20;99.90;;;;;;5052467;28;20107;-64
2024/03/12 08:56:35;;;;;;;4.30;3.17;;;8.30;99.90;;;;;;5054617;28;20048;-64
2024/03/12 08:59:02;;;;;;;3.92;2.90;;;8.30;99.90;;;;;;5054540;28;20041;-64
2024/03/12 09:01:29;;;;;;;4.38;3.10;;;8.30;99.90;;;;;;5054590;28;20478;-64
2024/03/12 09:03:57;;;;;;;3.90;3.03;;;8.30;99.90;;;;;;5053924;28;20393;-66
2024/03/12 09:06:24;;;;;;;3.50;2.50;;;8.30;99.90;;;;;;5054077;28;20132;-67
2024/03/12 09:08:50;;;;;;;4.05;2.78;;;8.40;99.90;;;;;;5047778;28;20098;-67
2024/03/12 09:11:17;;;;;;;3.80;2.28;;;8.40;99.90;;;;;;5043173;28;20052;-67
2024/03/12 09:13:47;;;;;;;2.85;2.17;;;8.40;99.90;;;;;;5033866;28;20037;-67
2024/03/12 09:16:14;;;;;;;4.25;2.40;;;8.40;99.90;;;;;;5033842;28;20120;-67
2024/03/12 09:18:42;;;;;;;2.60;1.95;;;8.50;99.90;;;;;;5034412;28;20091;-67
2024/03/12 09:21:18;;;;;;;6.78;2.20;;;8.50;99.90;;;;;;5034302;28;20103;-66
2024/03/12 09:23:45;;;;;;;3.50;1.92;;;8.60;99.90;;;;;;5034728;28;20045;-68
2024/03/12 09:26:27;;;;;;;2.92;1.77;;;8.50;99.90;;;;;;5054072;28;20124;-67
2024/03/12 09:28:55;;;;;;;4.47;1.75;;;8.50;99.90;;;;;;5054058;28;20139;-67
2024/03/12 09:31:22;;;;;;;2.70;1.60;;;8.60;99.90;;;;;;5054198;28;20128;-69
2024/03/12 09:33:51;;;;;;;2.72;1.63;;;8.60;99.90;;;;;;5053679;28;20033;-68
2024/03/12 09:36:20;;;;;;;2.45;1.35;;;8.60;99.90;;;;;;5052524;28;20036;-68
2024/03/12 09:38:47;;;;;;;2.28;1.23;;;8.60;99.90;;;;;;5052397;28;20132;-67
2024/03/12 09:41:16;;;;;;;2.35;1.40;;;8.70;99.90;;;;;;5053735;28;20037;-67
2024/03/12 09:43:43;;;;;;;2.97;1.70;;;8.70;99.90;;;;;;5052662;28;20041;-67
2024/03/12 09:46:11;;;;;;;2.35;1.10;;;8.70;99.90;;;;;;5052282;28;20049;-67
2024/03/12 09:48:38;;;;;;;2.20;1.20;;;8.80;99.90;;;;;;5053771;28;20044;-67
2024/03/12 09:51:06;;;;;;;1.65;1.00;;;8.80;99.90;;;;;;5053430;28;20067;-67
2024/03/12 09:53:32;;;;;;;2.65;1.50;;;8.80;99.90;;;;;;5053311;28;20048;-67
2024/03/12 09:56:03;;;;;;;1.70;1.08;;;8.90;99.90;;;;;;5035222;28;20050;-67
2024/03/12 09:58:33;;;;;;;3.78;1.15;;;8.90;99.90;;;;;;5012603;28;20042;-67
2024/03/12 10:01:00;;;;;;;1.88;1.20;;;9.10;99.90;;;;;;5013546;28;20099;-68
2024/03/12 10:03:29;;;;;;;2.50;1.27;;;9.00;99.90;;;;;;5012425;28;20069;-68
2024/03/12 10:05:56;;;;;;;2.17;1.30;;;9.10;99.90;;;;;;5011990;28;20045;-67
2024/03/12 10:08:27;;;;;;;2.05;1.00;;;9.20;99.90;;;;;;5033205;28;20044;-68
2024/03/12 10:10:54;;;;;;;2.58;1.10;;;9.20;99.90;;;;;;5053138;28;20041;-67
2024/03/12 10:13:21;;;;;;;3.15;1.20;;;9.20;99.90;;;;;;5053230;28;20124;-68
2024/03/12 10:15:50;;;;;;;3.15;0.80;;;9.20;99.90;;;;;;5052644;28;20135;-66
2024/03/12 10:18:17;;;;;;;1.55;0.93;;;9.20;99.90;;;;;;5052783;28;20037;-66
2024/03/12 10:20:44;;;;;;;1.30;0.75;;;9.30;99.90;;;;;;5042752;28;20048;-68
2024/03/12 10:23:10;;;;;;;1.20;0.73;;;9.30;99.90;;;;;;5033339;28;20414;-67
2024/03/12 10:25:37;;;;;;;2.30;0.88;;;9.40;99.90;;;;;;5047175;28;20028;-68
2024/03/12 10:28:07;;;;;;;1.55;0.70;;;9.40;99.90;;;;;;5053497;28;20049;-69
2024/03/12 10:30:35;;;;;;;1.70;0.80;;;9.40;99.90;;;;;;5052101;28;20114;-69
2024/03/12 10:33:02;;;;;;;1.30;0.80;;;9.50;99.90;;;;;;5052921;28;20136;-69
2024/03/12 10:35:29;;;;;;;2.67;1.30;;;9.50;99.90;;;;;;5050146;28;20060;-68
2024/03/12 10:37:56;;;;;;;1.30;0.60;;;9.60;99.90;;;;;;5053502;28;20052;-68
2024/03/12 10:40:23;;;;;;;1.00;0.60;;;9.60;99.90;;;;;;5051935;28;20045;-68
2024/03/12 10:42:51;;;;;;;1.45;0.70;;;9.70;99.90;;;;;;5052920;28;20061;-68
2024/03/12 10:45:18;;;;;;;1.65;0.73;;;9.70;99.90;;;;;;5053319;28;21406;-68
2024/03/12 10:47:45;;;;;;;1.15;0.50;;;9.70;99.90;;;;;;5051428;28;20051;-69
2024/03/12 10:50:11;;;;;;;1.52;0.60;;;9.80;99.90;;;;;;5052827;28;20122;-69
2024/03/12 10:52:38;;;;;;;2.03;0.80;;;9.90;99.90;;;;;;5051971;28;20041;-69
2024/03/12 10:55:06;;;;;;;1.77;0.60;;;9.90;99.90;;;;;;5053130;28;20044;-69
2024/03/12 10:57:37;;;;;;;2.42;0.70;;;9.90;99.90;;;;;;5051837;28;20048;-69
2024/03/12 11:00:08;;;;;;;3.92;0.70;;;10.00;99.90;;;;;;5052126;28;20053;-70
2024/03/12 11:02:35;;;;;;;2.95;0.85;;;10.00;99.90;;;;;;5051775;28;20124;-69
2024/03/12 11:05:02;;;;;;;1.60;0.70;;;10.10;99.90;;;;;;5051826;28;20441;-70
2024/03/12 11:07:29;;;;;;;1.88;0.93;;;10.10;99.90;;;;;;5051491;28;20075;-70
2024/03/12 11:09:56;;;;;;;1.60;0.77;;;10.10;99.90;;;;;;5052648;28;20044;-70
2024/03/12 11:12:24;;;;;;;1.55;0.65;;;10.20;99.90;;;;;;5051880;28;20053;-70
2024/03/12 11:14:52;;;;;;;1.45;0.70;;;10.20;99.90;;;;;;5052297;28;20045;-70
2024/03/12 11:17:19;;;;;;;3.00;0.75;;;10.30;99.90;;;;;;5051422;28;20045;-70
2024/03/12 11:19:46;;;;;;;1.80;0.70;;;10.30;99.90;;;;;;5051633;28;20044;-69
2024/03/12 11:22:14;;;;;;;2.22;0.88;;;10.30;99.90;;;;;;5049824;28;20068;-68
2024/03/12 11:24:42;;;;;;;3.60;0.80;;;10.40;99.90;;;;;;5052476;28;20103;-68
2024/03/12 11:27:09;;;;;;;2.75;0.70;;;10.40;99.90;;;;;;5052487;28;20049;-69
2024/03/12 11:29:37;;;;;;;3.20;0.93;;;10.40;99.90;;;;;;5056152;28;20037;-69
2024/03/12 11:32:03;;;;;;;3.55;0.80;;;10.50;99.90;;;;;;5056402;28;20041;-69
2024/03/12 11:34:31;;;;;;;1.63;0.80;;;10.50;99.90;;;;;;5054688;28;20028;-69
2024/03/12 11:36:57;;;;;;;1.75;0.77;;;10.60;99.90;;;;;;5054871;28;20405;-69
2024/03/12 11:39:29;;;;;;;1.45;0.75;;;10.60;99.90;;;;;;5055386;28;20048;-69
2024/03/12 11:41:56;;;;;;;2.13;0.80;;;10.60;99.90;;;;;;5056196;28;20041;-69
2024/03/12 11:44:23;;;;;;;2.05;1.00;;;10.60;99.90;;;;;;5053483;28;20437;-69
2024/03/12 11:46:51;;;;;;;1.88;0.80;;;10.70;99.90;;;;;;5054233;28;20048;-69
2024/03/12 11:49:18;;;;;;;2.50;0.70;;;10.70;99.90;;;;;;5054097;28;20045;-69
2024/03/12 11:51:45;;;;;;;1.30;0.73;;;10.80;99.90;;;;;;5055696;28;20041;-69
2024/03/12 11:54:12;;;;;;;2.35;0.70;;;10.80;99.90;;;;;;5054956;28;20072;-70
2024/03/12 11:56:39;;;;;;;4.72;1.02;;;10.80;99.90;;;;;;5053903;28;20048;-70
2024/03/12 11:59:07;;;;;;;3.08;0.70;;;10.90;99.90;;;;;;5055158;28;20139;-70
2024/03/12 12:01:45;;;;;;;3.53;0.70;;;10.90;99.90;;;;;;5054418;28;20045;-70
2024/03/12 12:04:14;;;;;;;2.97;0.80;;;10.90;99.90;;;;;;5055703;28;20401;-71
2024/03/12 12:06:43;;;;;;;1.98;0.85;;;11.00;99.90;;;;;;5053491;28;20053;-69
2024/03/12 12:09:10;;;;;;;4.00;1.42;;;11.00;99.90;;;;;;5015895;28;20060;-69
2024/03/12 12:11:37;;;;;;;2.97;0.80;;;11.00;99.90;;;;;;5015615;28;20444;-68
2024/03/12 12:14:08;;;;;;;1.40;0.77;;;11.00;99.90;;;;;;5015652;28;20121;-69
2024/03/12 12:16:36;;;;;;;2.55;0.82;;;11.00;99.90;;;;;;5015393;28;20149;-68
2024/03/12 12:19:06;;;;;;;4.00;0.90;;;11.00;99.90;;;;;;5015442;28;20053;-70
2024/03/12 12:21:35;;;;;;;3.22;1.00;;;11.00;99.90;;;;;;5015581;28;20038;-69
2024/03/12 12:24:01;;;;;;;2.92;1.35;;;11.10;99.90;;;;;;5014170;28;20053;-68
2024/03/12 12:26:30;;;;;;;2.95;0.95;;;11.10;99.90;;;;;;5015617;28;20072;-69
2024/03/12 12:28:57;;;;;;;2.90;0.90;;;11.10;99.90;;;;;;5015228;28;20518;-69
2024/03/12 12:31:24;;;;;;;1.83;0.80;;;11.10;99.90;;;;;;5015573;28;20514;-69
2024/03/12 12:33:51;;;;;;;3.72;0.90;;;11.20;99.90;;;;;;5055094;28;20520;-69
2024/03/12 12:36:18;;;;;;;2.53;0.90;;;11.20;99.90;;;;;;5054882;28;20068;-69
2024/03/12 12:38:44;;;;;;;2.22;1.05;;;11.30;99.90;;;;;;5054287;28;20037;-69
2024/03/12 12:41:24;;;;;;;4.38;1.10;;;11.30;99.90;;;;;;5054842;28;20044;-69
2024/03/12 12:43:52;;;;;;;2.42;0.80;;;11.30;99.90;;;;;;5055053;28;20064;-69
2024/03/12 12:46:26;;;;;;;3.08;0.90;;;11.30;99.90;;;;;;5054777;28;20083;-69
2024/03/12 12:48:53;;;;;;;2.38;0.80;;;11.40;99.90;;;;;;5055038;28;20049;-69
2024/03/12 12:51:23;;;;;;;2.72;0.90;;;11.40;99.90;;;;;;5054488;28;20045;-70